Admir Fernandes

Ojeador - Young Boys
3 Dic 2028
Domingo
Continuar

Personalidad

Adaptabilidad (19) Ambición (20) Controversia (16) Lealtad (19) Presión (16) Profesionalismo (12) Deportividad (8) Temperamento (4)

Perfil

Estilo de dirección Democrático
Licencia Continental Pro
Determinación 6
Gestión de personas 15
Motivación 8
Disciplina 10
Satisfacción laboral
100%
Fatiga
0%
Cargo Ojeador
Salario 78.6K p/s
Contrato 14.03.2030

Rendimiento

Comportamiento Bueno
Efectividad del entrenamiento
46%
Desarrollo de jugadores
45%
Prevención de lesiones
70%
Implementación táctica
45%

Eventos recientes

Asistió a una reunión de captación ahora
Evaluó a un jugador 7d atrás
Asistió a una reunión de captación 7d atrás
Evaluó a un jugador 7d atrás
Evaluó a un jugador 7d atrás
Observó un partido 14d atrás
Observó un partido 14d atrás
Evaluó a un jugador 14d atrás

Actualmente siguiendo

94
Jugador Club Estado Habilidad Confianza Observado Última observación Último voto
Matheus Thuler Vegalta Sendai Activo 117 / 141 40% 2 01.12.2028 -
Dominik Schmid Red Bull Salzburg Activo 146 / 142 40% 1 01.12.2028 -
Alexandro Bernabei Internacional Activo 144 / 136 40% 3 30.11.2028 -
Kimito Nono Yokohama F. Marinos Activo 151 / 126 40% 1 30.11.2028 -
David Douděra New York Red Bulls Activo 133 / 113 40% 1 24.11.2028 -
Santiago Salcedo Cruzeiro Activo 145 / 158 40% 1 24.11.2028 -
Willian Batista Cortulua Activo 168 / 135 40% 2 21.11.2028 -
Kaito Yasui Urawa Reds Activo 115 / 118 40% 1 21.11.2028 -
Franco Ibarra Rosario Central Activo 137 / 125 40% 1 20.11.2028 -
Guille Rosas Boca Juniors Activo 140 / 152 40% 3 18.11.2028 -
Álex Valle Boca Juniors Activo 125 / 139 40% 1 18.11.2028 -
Mateo Mendoza Yokohama F. Marinos Activo 130 / 141 40% 1 17.11.2028 -
Riku Yamane Yokohama F. Marinos Activo 145 / 150 40% 2 16.11.2028 -
Renan Lodi Atlético Mineiro Activo 148 / 132 40% 1 16.11.2028 -
Adrien Truffert Flamengo Activo 176 / 156 40% 1 13.11.2028 -
Sondre Auklend Bodo/Glimt Activo 152 / 152 40% 1 10.11.2028 -
Kayne Ramsay Atlético Mineiro Activo 120 / 137 40% 1 09.11.2028 -
Tojiro Kubo Kashiwa Reysol Activo 131 / 116 40% 1 06.11.2028 -
Daiki Matsuoka Avispa Fukuoka Activo 133 / 151 40% 1 02.10.2028 -
David Carmo Olympiacos Perdido 159 / 154 40% 1 23.08.2028 -
Conrad Wallem Djurgarden Perdido 128 / 141 40% 1 23.08.2028 -
Yan Valery Sheffield Wednesday Perdido 134 / 132 40% 1 31.07.2028 -
Yerson Mosquera Wolverhampton Activo 140 / 146 40% 1 31.07.2028 -
Andrey Santos Bolton Wanderers Activo 153 / 160 40% 1 06.07.2028 -
Kike Salas Sevilla Activo 157 / 160 40% 1 06.07.2028 -
Derry Murkin Derby County Activo 125 / 127 40% 1 03.07.2028 -
Manu Koné AS Roma Activo 173 / 179 40% 1 03.07.2028 -
Omar El Hilali Espanyol Activo 163 / 168 40% 1 20.06.2028 -
Daijiro Chirino Almería Activo 141 / 138 40% 1 20.06.2028 -
Tomás Verón Lupi Grasshopper Activo 135 / 137 51% 1 19.06.2028 -
Callum Brittain Middlesbrough Activo 129 / 134 40% 1 19.06.2028 -
Ramón Terrats Getafe Activo 138 / 158 40% 1 19.06.2028 -
Jonathan Dubasin Osasuna Activo 144 / 144 40% 1 31.05.2028 -
Bernardo Lima Porto Activo 103 / 128 40% 3 21.05.2028 -
Daniel Banjaqui Benfica Activo 128 / 138 40% 2 21.05.2028 -
Tyler Fletcher Rotherham United Activo 111 / 119 40% 3 20.05.2028 -
Martim Cunha Porto Activo 113 / 115 40% 1 19.05.2028 -
Ayden Heaven Portsmouth Activo 155 / 158 40% 2 14.05.2028 -
Trey Nyoni Rotherham United Activo 144 / 156 40% 2 14.05.2028 -
Giovanni Leoni Lincoln City Activo 148 / 145 40% 1 11.05.2028 -
Jan Bürger Northampton Town Activo 114 / 116 40% 1 02.05.2028 -
Honest Ahanor Atalanta Activo 126 / 140 40% 2 30.04.2028 -
Andrija Bulatović Chamois Niortais Activo 122 / 136 40% 3 25.04.2028 -
Konta Ismaily Activo 98 / 97 40% 2 24.04.2028 -
Jorge Salinas Racing Santander Activo 126 / 137 40% 2 22.04.2028 -
Jorthy Mokio ADO Den Haag Activo 127 / 128 40% 1 19.04.2028 -
Abubakar Adams Aduana Stars Activo 105 / 76 40% 1 11.04.2028 -
Izan Merino Málaga Activo 123 / 123 40% 1 06.04.2028 -
Vasilije Janjičić Grasshopper Activo 104 / 114 51% 1 24.01.2028 -
Ivan Cavaleiro Zurich Activo 127 / 117 51% 1 02.06.2027 -
Keinan Davis Udinese Activo 125 / 122 40% 1 31.05.2027 -
Gianluca Scamacca Atalanta Activo 141 / 156 40% 1 31.05.2027 -
Mohamed-Ali Cho Hull City Activo 131 / 130 40% 1 30.05.2027 -
Azor Matusiwa Ipswich Town Activo 132 / 130 40% 1 29.05.2027 -
Malick Fofana Sunderland Activo 145 / 144 40% 1 29.05.2027 -
Derensili Sanches Fernandes Huddersfield Town Activo 131 / 116 40% 1 25.05.2027 -
Jakub Badžgoň MSK Zilina Activo 108 / 107 40% 3 23.05.2027 -
Ayoub Akabou Ceuta Activo 82 / 93 40% 1 23.05.2027 -
Matt O'Riley Brighton Activo 150 / 143 40% 4 17.05.2027 -
Leon Klanac Bayern Munich Activo 85 / 102 40% 3 16.05.2027 -
Silas Huber Zurich Activo 108 / 128 40% 1 16.05.2027 -
Max Johnston Derby County Activo 137 / 135 40% 1 13.05.2027 -
Gonçalo Ribeiro Porto Activo 100 / 93 40% 2 10.05.2027 -
Jason Knight Bristol City Activo 132 / 135 40% 1 05.05.2027 -
Samuel Edozie Southampton Activo 127 / 132 40% 1 02.05.2027 -
Florian Neureiter Grodig Activo 69 / 77 40% 1 01.05.2027 -
Amine Adli Bournemouth Activo 141 / 132 40% 2 27.04.2027 -
Manor Solomon West Ham United Activo 135 / 146 40% 3 26.04.2027 -
Scott Twine Bristol City Activo 128 / 121 40% 1 26.04.2027 -
Andre Brooks Sheffield United Activo 127 / 124 40% 2 21.04.2027 -
Marcus Edwards Burnley Activo 141 / 138 40% 4 20.04.2027 -
Yehor Yarmoliuk Brentford Activo 139 / 139 40% 1 20.04.2027 -
Yoane Wissa Newcastle United Activo 139 / 139 40% 1 19.04.2027 -
Rodrigo Gomes Wolverhampton Activo 148 / 147 40% 1 19.04.2027 -
Tomás Ruiz Independiente Activo 91 / 106 40% 1 18.04.2027 -
Nordi Mukiele Sunderland Activo 146 / 136 40% 1 15.04.2027 -
Alex Scott Bournemouth Activo 158 / 141 40% 1 13.04.2027 -
Fábio Carvalho Brentford Activo 137 / 140 40% 1 13.04.2027 -
Mikkel Damsgaard Brentford Activo 146 / 140 40% 1 12.04.2027 -
Nathan Broadhead Wrexham Activo 138 / 135 40% 1 11.04.2027 -
Naphtali Mokoena Bloemfontein Celtic Activo 100 / 88 40% 1 11.04.2027 -
Joe Gelhardt Hull City Activo 130 / 142 40% 3 09.04.2027 -
Giovanni Stellato Guidonia Montecelio Activo 100 / 101 40% 2 08.04.2027 -
Sorba Thomas Stoke City Activo 123 / 141 40% 2 07.04.2027 -
Óscar Al-Diriyah Activo 112 / 120 40% 1 27.03.2027 -
James Garner Everton Activo 153 / 138 40% 1 25.03.2027 -
Marcello Trippel Borussia Mönchengladbach Activo 80 / 104 40% 1 20.03.2027 -
Pedro Porro Tottenham Activo 140 / 136 40% 1 16.03.2027 -
Marcelo Allende Mamelodi Sundowns Activo 131 / 127 40% 1 15.03.2027 -
Brooke Norton-Cuffy Hull City Activo 130 / 135 40% 1 14.03.2027 -
Martin James Köln Activo 88 / 97 40% 1 11.03.2027 -
Antonios Papadopoulos Lugano Activo 130 / 130 51% 1 03.01.2027 -
Yanis Cimignani Lugano Activo 113 / 112 51% 1 31.08.2026 -
Youssoufa Moukoko FC Copenhagen Activo 124 / 127 40% 1 05.08.2026 -